Time;durP1;ratioP1;P1;durP2;ratioP2;P2;SDS_P1;SDS_P2;PMS_P1;PMS_P2;Temp;Humidity;BMP_temperature;BMP_pressure;BME280_temperature;BME280_humidity;BME280_pressure;Samples;Min_cycle;Max_cycle;Signal;HPM_P1;HPM_P2
2021/04/12 00:01:47;;;;;;;4.93;3.47;;;;;;;;;;5018000;28;20039;-57
2021/04/12 00:04:23;;;;;;;4.80;3.60;;;;;;;;;;5054437;28;20085;-57
2021/04/12 00:07:21;;;;;;;3.00;2.30;;;;;;;;;;5036734;28;20025;-57
2021/04/12 00:10:07;;;;;;;3.97;2.97;;;;;;;;;;5054138;28;20029;-57
2021/04/12 00:13:02;;;;;;;3.70;2.47;;;;;;;;;;5054850;28;20349;-55
2021/04/12 00:15:50;;;;;;;3.40;2.40;;;;;;;;;;5036965;28;20068;-56
2021/04/12 00:18:47;;;;;;;3.40;3.00;;;;;;;;;;5036813;28;20047;-55
2021/04/12 00:21:32;;;;;;;3.57;2.93;;;;;;;;;;5037146;28;20037;-57
2021/04/12 00:24:20;;;;;;;4.33;3.50;;;;;;;;;;5053968;28;20025;-57
2021/04/12 00:27:22;;;;;;;4.27;2.63;;;;;;;;;;5036650;28;20121;-57
2021/04/12 00:29:57;;;;;;;4.43;2.70;;;;;;;;;;5012640;28;20032;-57
2021/04/12 00:32:54;;;;;;;4.20;2.90;;;;;;;;;;5055373;28;20029;-56
2021/04/12 00:35:27;;;;;;;4.07;3.20;;;;;;;;;;5037088;28;20082;-52
2021/04/12 00:38:05;;;;;;;5.00;3.73;;;;;;;;;;5053938;28;20437;-56
2021/04/12 00:40:50;;;;;;;3.57;3.07;;;;;;;;;;5035920;28;20366;-57
2021/04/12 00:43:53;;;;;;;3.60;3.13;;;;;;;;;;5054749;28;20025;-57
2021/04/12 00:46:44;;;;;;;3.13;2.30;;;;;;;;;;5055623;28;20047;-53
2021/04/12 00:49:19;;;;;;;;;;;;;;;;;;5058704;28;20021;-56
2021/04/12 00:52:19;;;;;;;2.27;1.77;;;;;;;;;;5058818;28;19947;-54
2021/04/12 00:55:10;;;;;;;4.43;3.60;;;;;;;;;;5059093;28;20033;-55
2021/04/12 00:58:04;;;;;;;5.20;2.93;;;;;;;;;;5059208;28;20434;-56
2021/04/12 01:00:49;;;;;;;3.83;2.83;;;;;;;;;;5040615;28;20029;-55
2021/04/12 01:03:50;;;;;;;;;;;;;;;;;;;;;
2021/04/12 01:12:17;;;;;;;4.77;3.63;;;;;;;;;;5053087;28;20426;-55
2021/04/12 01:15:15;;;;;;;;;;;;;;;;;;;;;
2021/04/12 01:18:19;;;;;;;;;;;;;;;;;;;;;
2021/04/12 01:21:23;;;;;;;4.10;3.10;;;;;;;;;;5057053;28;20423;-55
2021/04/12 01:30:37;;;;;;;5.33;4.40;;;;;;;;;;5024513;28;20029;-54
2021/04/12 01:33:32;;;;;;;5.27;4.27;;;;;;;;;;5059340;28;20074;-57
2021/04/12 01:36:19;;;;;;;7.60;3.90;;;;;;;;;;5059060;28;20037;-57
2021/04/12 01:39:19;;;;;;;5.90;4.30;;;;;;;;;;5040085;28;20404;-56
2021/04/12 01:42:14;;;;;;;5.35;4.32;;;;;;;;;;5038288;28;20034;-57
2021/04/12 01:45:08;;;;;;;5.43;4.13;;;;;;;;;;5019072;28;20053;-57
2021/04/12 01:48:09;;;;;;;7.40;4.07;;;;;;;;;;5038225;28;20030;-54
2021/04/12 01:50:44;;;;;;;7.67;4.87;;;;;;;;;;4976961;28;20069;-56
2021/04/12 01:56:48;;;;;;;6.32;5.03;;;;;;;;;;4974934;28;20039;-56
2021/04/12 01:59:21;;;;;;;3.83;3.07;;;;;;;;;;4976935;28;20075;-56
2021/04/12 02:02:06;;;;;;;5.10;4.00;;;;;;;;;;4977363;28;20039;-57
2021/04/12 02:07:55;;;;;;;4.93;4.17;;;;;;;;;;5038347;28;20428;-55
2021/04/12 02:10:46;;;;;;;4.33;3.37;;;;;;;;;;5019789;28;20038;-53
2021/04/12 02:13:12;;;;;;;;;;;;;;;;;;5020501;28;20506;-55
2021/04/12 02:15:44;;;;;;;4.17;3.57;;;;;;;;;;5037948;28;19913;-57
2021/04/12 02:18:39;;;;;;;;;;;;;;;;;;;;;
2021/04/12 02:21:11;;;;;;;5.27;4.57;;;;;;;;;;5035027;28;20526;-54
2021/04/12 02:24:05;;;;;;;4.73;4.13;;;;;;;;;;5037821;28;20045;-56
2021/04/12 02:26:53;;;;;;;5.67;3.90;;;;;;;;;;5037588;28;20471;-57
2021/04/12 02:29:42;;;;;;;6.60;5.10;;;;;;;;;;5037473;28;20412;-53
2021/04/12 02:32:49;;;;;;;7.17;4.53;;;;;;;;;;5018068;28;20393;-56
2021/04/12 02:35:33;;;;;;;5.40;3.57;;;;;;;;;;5037714;28;20026;-56
2021/04/12 02:41:06;;;;;;;9.70;4.57;;;;;;;;;;5042765;28;20105;-56
2021/04/12 02:43:51;;;;;;;7.20;5.50;;;;;;;;;;5058250;28;20021;-55
2021/04/12 02:46:38;;;;;;;7.83;5.00;;;;;;;;;;5057492;28;20327;-54
2021/04/12 02:49:23;;;;;;;5.20;4.70;;;;;;;;;;5058518;28;20108;-55
2021/04/12 02:52:09;;;;;;;4.57;4.00;;;;;;;;;;5057468;28;20076;-56
2021/04/12 02:54:58;;;;;;;6.50;5.10;;;;;;;;;;5057432;28;20055;-57
2021/04/12 03:00:50;;;;;;;9.30;5.83;;;;;;;;;;5057493;28;20064;-57
2021/04/12 03:03:28;;;;;;;7.17;5.47;;;;;;;;;;5039104;28;20100;-57
2021/04/12 03:09:26;;;;;;;7.18;5.75;;;;;;;;;;5056154;28;20031;-56
2021/04/12 03:12:21;;;;;;;6.50;5.37;;;;;;;;;;5034738;28;20364;-55
2021/04/12 03:15:08;;;;;;;8.13;7.33;;;;;;;;;;5034101;28;20049;-52
2021/04/12 03:17:56;;;;;;;5.07;4.27;;;;;;;;;;5035149;28;20022;-57
2021/04/12 03:20:42;;;;;;;7.53;6.20;;;;;;;;;;5035106;28;20602;-55
2021/04/12 03:23:36;;;;;;;6.57;5.47;;;;;;;;;;5017961;28;20025;-57
2021/04/12 03:29:31;;;;;;;;;;;;;;;;;;;;;
2021/04/12 03:32:16;;;;;;;6.10;5.50;;;;;;;;;;5032442;28;20037;-56
2021/04/12 03:35:08;;;;;;;6.50;4.93;;;;;;;;;;5031571;28;20041;-57
2021/04/12 03:37:49;;;;;;;5.67;4.60;;;;;;;;;;5031971;28;20060;-54
2021/04/12 03:40:36;;;;;;;5.57;4.20;;;;;;;;;;5030946;28;20049;-56
2021/04/12 03:46:30;;;;;;;9.03;5.60;;;;;;;;;;5030923;28;20029;-56
2021/04/12 03:49:43;;;;;;;8.50;5.53;;;;;;;;;;5054500;28;20029;-56
2021/04/12 03:55:41;;;;;;;;;;;;;;;;;;;;;
2021/04/12 03:58:46;;;;;;;8.07;6.00;;;;;;;;;;5052333;28;20108;-55
2021/04/12 04:01:34;;;;;;;6.00;5.33;;;;;;;;;;5038882;28;20471;-56
2021/04/12 04:04:33;;;;;;;;;;;;;;;;;;;;;
2021/04/12 04:07:23;;;;;;;5.43;4.47;;;;;;;;;;5053734;28;20022;-56
2021/04/12 04:10:01;;;;;;;7.97;4.90;;;;;;;;;;5053911;28;20024;-52
2021/04/12 04:16:13;;;;;;;7.80;5.87;;;;;;;;;;5053844;28;20475;-52
2021/04/12 04:21:59;;;;;;;5.50;4.73;;;;;;;;;;5055941;28;20078;-56
2021/04/12 04:24:47;;;;;;;6.67;5.87;;;;;;;;;;5056011;28;20102;-55
2021/04/12 04:27:34;;;;;;;7.33;5.33;;;;;;;;;;5057823;28;20082;-57
2021/04/12 04:36:40;;;;;;;7.90;6.30;;;;;;;;;;5018488;28;20057;-55
2021/04/12 04:43:14;;;;;;;9.10;7.63;;;;;;;;;;5040379;28;20048;-56
2021/04/12 04:46:20;;;;;;;9.53;6.23;;;;;;;;;;5008438;28;20106;-57
2021/04/12 04:48:58;;;;;;;8.23;6.90;;;;;;;;;;5037913;28;20029;-54
2021/04/12 04:52:00;;;;;;;8.23;5.80;;;;;;;;;;5021433;28;20037;-56
2021/04/12 04:55:06;;;;;;;7.57;6.00;;;;;;;;;;5038005;28;20459;-57
2021/04/12 04:57:42;;;;;;;4.83;4.03;;;;;;;;;;5021699;28;20137;-57
2021/04/12 05:00:25;;;;;;;;;;;;;;;;;;;;;
2021/04/12 05:03:10;;;;;;;6.97;5.03;;;;;;;;;;5037409;28;20121;-55
2021/04/12 05:05:57;;;;;;;6.13;5.47;;;;;;;;;;5021220;28;20323;-56
2021/04/12 05:08:41;;;;;;;6.33;4.73;;;;;;;;;;5020500;28;20045;-55
2021/04/12 05:11:41;;;;;;;;;;;;;;;;;;;;;
2021/04/12 05:14:13;;;;;;;5.73;4.27;;;;;;;;;;5029184;28;20129;-57
2021/04/12 05:17:05;;;;;;;8.77;5.60;;;;;;;;;;5037454;28;20044;-55
2021/04/12 05:20:12;;;;;;;5.23;4.47;;;;;;;;;;5038386;28;20037;-56
2021/04/12 05:22:57;;;;;;;6.03;4.33;;;;;;;;;;5040112;28;20032;-55
2021/04/12 05:25:43;;;;;;;6.70;4.97;;;;;;;;;;5037487;28;20336;-56
2021/04/12 05:28:36;;;;;;;5.10;4.60;;;;;;;;;;5037284;28;20460;-57
2021/04/12 05:31:26;;;;;;;6.97;5.57;;;;;;;;;;5038120;28;20511;-56
2021/04/12 05:34:18;;;;;;;7.53;5.30;;;;;;;;;;5036484;28;20034;-55
2021/04/12 05:37:06;;;;;;;;;;;;;;;;;;;;;
2021/04/12 05:46:26;;;;;;;8.20;6.67;;;;;;;;;;5015977;28;20049;-55
2021/04/12 05:49:02;;;;;;;9.13;6.90;;;;;;;;;;5057238;28;20036;-55
2021/04/12 05:51:50;;;;;;;8.63;7.30;;;;;;;;;;5038289;28;20340;-57
2021/04/12 05:57:46;;;;;;;8.53;5.77;;;;;;;;;;5042586;28;20059;-55
2021/04/12 06:00:31;;;;;;;7.90;7.10;;;;;;;;;;5057032;28;20136;-54
2021/04/12 06:03:25;;;;;;;7.40;6.27;;;;;;;;;;5057204;28;20083;-52
2021/04/12 06:09:30;;;;;;;8.90;8.00;;;;;;;;;;5055755;28;20467;-56
2021/04/12 06:12:15;;;;;;;7.17;5.97;;;;;;;;;;5038270;28;20541;-54
2021/04/12 06:14:41;;;;;;;10.80;7.77;;;;;;;;;;5037053;28;20467;-57
2021/04/12 06:17:31;;;;;;;11.13;7.33;;;;;;;;;;5055451;28;20029;-57
2021/04/12 06:20:24;;;;;;;10.63;7.70;;;;;;;;;;5044677;28;20060;-56
2021/04/12 06:23:19;;;;;;;9.73;8.27;;;;;;;;;;5054877;28;20506;-55
2021/04/12 06:25:56;;;;;;;10.33;8.43;;;;;;;;;;5025572;28;20052;-55
2021/04/12 06:28:44;;;;;;;11.27;7.80;;;;;;;;;;5026096;28;20033;-56
2021/04/12 06:34:48;;;;;;;11.30;10.07;;;;;;;;;;5045490;28;20064;-55
2021/04/12 06:37:42;;;;;;;15.17;9.43;;;;;;;;;;5054069;28;20091;-56
2021/04/12 06:40:35;;;;;;;10.17;8.93;;;;;;;;;;5035926;28;20091;-55
2021/04/12 06:43:10;;;;;;;12.40;8.83;;;;;;;;;;5053482;28;20045;-52
2021/04/12 06:46:04;;;;;;;11.80;10.47;;;;;;;;;;5050693;28;20041;-57
2021/04/12 06:52:22;;;;;;;;;;;;;;;;;;;;;
2021/04/12 06:55:27;;;;;;;12.07;9.43;;;;;;;;;;5051104;28;20039;-56
2021/04/12 06:58:12;;;;;;;13.30;10.53;;;;;;;;;;5036232;28;20036;-55
2021/04/12 07:00:57;;;;;;;9.73;8.03;;;;;;;;;;5054371;28;20496;-55
2021/04/12 07:03:52;;;;;;;13.43;10.30;;;;;;;;;;5055028;28;20025;-55
2021/04/12 07:06:37;;;;;;;12.50;10.57;;;;;;;;;;5037470;28;20359;-56
2021/04/12 07:12:22;;;;;;;9.03;8.00;;;;;;;;;;5054923;28;20036;-56
2021/04/12 07:15:17;;;;;;;15.00;9.60;;;;;;;;;;5054388;28;20021;-56
2021/04/12 07:20:56;;;;;;;12.87;10.80;;;;;;;;;;5054030;28;20025;-55
2021/04/12 07:29:47;;;;;;;12.17;10.83;;;;;;;;;;5025281;28;20056;-57
2021/04/12 07:32:41;;;;;;;15.27;11.27;;;;;;;;;;5053971;28;20144;-56
2021/04/12 07:35:36;;;;;;;14.03;12.17;;;;;;;;;;5035745;28;20044;-56
2021/04/12 07:41:28;;;;;;;14.80;10.77;;;;;;;;;;4992245;28;20026;-57
2021/04/12 07:44:20;;;;;;;14.90;13.27;;;;;;;;;;4992555;28;20042;-57
2021/04/12 07:47:30;;;;;;;17.20;13.23;;;;;;;;;;5039670;28;20037;-56
2021/04/12 07:50:06;;;;;;;17.23;14.40;;;;;;;;;;4973683;28;20046;-56
2021/04/12 07:53:07;;;;;;;15.63;13.83;;;;;;;;;;4973048;28;20262;-53
2021/04/12 07:55:54;;;;;;;16.60;14.07;;;;;;;;;;5054183;28;20029;-57
2021/04/12 07:58:39;;;;;;;15.63;13.07;;;;;;;;;;5035741;28;20036;-57
2021/04/12 08:04:45;;;;;;;16.23;13.23;;;;;;;;;;5055225;28;20293;-55
2021/04/12 08:07:58;;;;;;;16.27;13.33;;;;;;;;;;5053842;28;20036;-57
2021/04/12 08:14:32;;;;;;;16.33;14.57;;;;;;;;;;5051608;28;20356;-55
2021/04/12 08:17:36;;;;;;;;;;;;;;;;;;;;;
2021/04/12 08:23:30;;;;;;;24.00;13.97;;;;;;;;;;4972130;28;20031;-57
2021/04/12 08:26:19;;;;;;;18.03;14.00;;;;;;;;;;5050349;28;20049;-56
2021/04/12 08:29:04;;;;;;;20.13;15.63;;;;;;;;;;5035372;28;20331;-54
2021/04/12 08:32:04;;;;;;;;;;;;;;;;;;;;;
2021/04/12 08:34:52;;;;;;;18.05;14.25;;;;;;;;;;5023823;28;20044;-54
2021/04/12 08:43:55;;;;;;;20.43;15.03;;;;;;;;;;5052081;28;20136;-57
2021/04/12 08:46:28;;;;;;;;;;;;;;;;;;5052156;28;20056;-56
2021/04/12 08:49:21;;;;;;;16.77;13.93;;;;;;;;;;5034125;28;19999;-57
2021/04/12 08:52:11;;;;;;;13.67;11.83;;;;;;;;;;5053157;28;20036;-56
2021/04/12 08:54:52;;;;;;;15.63;13.77;;;;;;;;;;5052558;28;20033;-55
2021/04/12 08:58:10;;;;;;;14.87;13.27;;;;;;;;;;5034501;28;20048;-57
2021/04/12 09:01:01;;;;;;;14.67;12.70;;;;;;;;;;4972385;28;20113;-57
2021/04/12 09:03:55;;;;;;;13.90;12.40;;;;;;;;;;4955385;28;20027;-57
2021/04/12 09:06:48;;;;;;;13.10;11.53;;;;;;;;;;5046044;28;20033;-57
2021/04/12 09:09:35;;;;;;;17.83;10.87;;;;;;;;;;5036079;28;20379;-56
2021/04/12 09:12:24;;;;;;;13.20;11.00;;;;;;;;;;5055886;28;20112;-56
2021/04/12 09:15:28;;;;;;;;;;;;;;;;;;;;;
2021/04/12 09:18:19;;;;;;;13.80;12.30;;;;;;;;;;5056310;28;20422;-58
2021/04/12 09:21:09;;;;;;;12.18;10.85;;;;;;;;;;5057134;28;20390;-58
2021/04/12 09:23:57;;;;;;;17.77;11.17;;;;;;;;;;5057193;28;20029;-57
2021/04/12 09:26:41;;;;;;;12.43;9.80;;;;;;;;;;5038201;28;20025;-58
2021/04/12 09:29:35;;;;;;;12.50;9.70;;;;;;;;;;5044023;28;20451;-57
2021/04/12 09:32:28;;;;;;;17.27;9.83;;;;;;;;;;5057493;28;20037;-57
2021/04/12 09:35:22;;;;;;;15.47;10.30;;;;;;;;;;5058780;28;20017;-57
2021/04/12 09:38:19;;;;;;;10.67;8.97;;;;;;;;;;5055975;28;20120;-57
2021/04/12 09:50:21;;;;;;;14.70;9.63;;;;;;;;;;5055878;28;20167;-58
2021/04/12 09:53:09;;;;;;;;;;;;;;;;;;;;;
2021/04/12 09:55:52;;;;;;;10.63;7.80;;;;;;;;;;5004870;28;20041;-58
2021/04/12 09:58:50;;;;;;;9.03;6.83;;;;;;;;;;5055588;28;20061;-56
2021/04/12 10:01:43;;;;;;;9.97;6.77;;;;;;;;;;5055978;28;20064;-58
2021/04/12 10:04:46;;;;;;;10.97;6.53;;;;;;;;;;5055507;28;20037;-56
2021/04/12 10:07:43;;;;;;;8.33;7.43;;;;;;;;;;5052355;28;20495;-58
2021/04/12 10:10:33;;;;;;;7.20;6.50;;;;;;;;;;5055108;28;20057;-59
2021/04/12 10:13:28;;;;;;;13.33;8.90;;;;;;;;;;5055282;28;20067;-59
2021/04/12 10:16:26;;;;;;;8.80;6.32;;;;;;;;;;4973889;28;20042;-59
2021/04/12 10:19:10;;;;;;;9.20;6.45;;;;;;;;;;4981447;28;20081;-59
2021/04/12 10:22:02;;;;;;;9.25;4.90;;;;;;;;;;4993583;28;20027;-59
2021/04/12 10:24:47;;;;;;;7.90;5.20;;;;;;;;;;4994241;28;20030;-59
2021/04/12 10:27:36;;;;;;;10.43;5.35;;;;;;;;;;4993339;28;20062;-59
2021/04/12 10:30:15;;;;;;;5.40;4.78;;;;;;;;;;4976506;28;20081;-59
2021/04/12 10:35:56;;;;;;;7.60;4.03;;;;;;;;;;4993104;28;20050;-59
2021/04/12 10:42:02;;;;;;;6.67;4.10;;;;;;;;;;4976087;28;20062;-59
2021/04/12 10:48:14;;;;;;;5.07;3.85;;;;;;;;;;4937909;28;20046;-60
2021/04/12 10:51:10;;;;;;;9.85;5.00;;;;;;;;;;5043354;28;20068;-59
2021/04/12 10:54:01;;;;;;;4.93;3.83;;;;;;;;;;5036884;28;20041;-58
2021/04/12 10:56:53;;;;;;;6.28;3.60;;;;;;;;;;5036307;28;20105;-59
2021/04/12 10:59:37;;;;;;;5.35;3.53;;;;;;;;;;5054280;28;20029;-59
2021/04/12 11:02:28;;;;;;;7.60;3.20;;;;;;;;;;5036286;28;20025;-59
2021/04/12 11:05:12;;;;;;;4.78;3.33;;;;;;;;;;5054553;28;20465;-60
2021/04/12 11:08:12;;;;;;;3.83;2.88;;;;;;;;;;5037148;28;20455;-59
2021/04/12 11:10:44;;;;;;;9.82;3.50;;;;;;;;;;5035817;28;20028;-59
2021/04/12 11:19:31;;;;;;;4.95;3.03;;;;;;;;;;5030108;28;20060;-59
2021/04/12 11:22:17;;;;;;;4.30;2.78;;;;;;;;;;5035796;28;20056;-60
2021/04/12 11:25:22;;;;;;;3.55;3.10;;;;;;;;;;5054414;28;20409;-60
2021/04/12 11:31:12;;;;;;;4.53;2.80;;;;;;;;;;5042239;28;20055;-60
2021/04/12 11:33:56;;;;;;;5.05;3.35;;;;;;;;;;5054082;28;20020;-60
2021/04/12 11:37:21;;;;;;;3.42;2.33;;;;;;;;;;5035139;28;20040;-60
2021/04/12 11:42:50;;;;;;;2.92;2.10;;;;;;;;;;5052977;28;20041;-60
2021/04/12 11:46:07;;;;;;;2.90;2.00;;;;;;;;;;5052655;28;20095;-60
2021/04/12 11:48:53;;;;;;;4.38;2.30;;;;;;;;;;4971711;28;20042;-60
2021/04/12 11:51:38;;;;;;;3.05;1.80;;;;;;;;;;4971908;28;20029;-59
2021/04/12 11:54:21;;;;;;;;;;;;;;;;;;;;;
2021/04/12 11:56:52;;;;;;;3.40;2.40;;;;;;;;;;4970685;28;20169;-60
2021/04/12 11:59:28;;;;;;;4.68;2.70;;;;;;;;;;4972864;28;20527;-60
2021/04/12 12:02:19;;;;;;;2.88;2.15;;;;;;;;;;4971761;28;20035;-60
2021/04/12 12:04:54;;;;;;;2.25;1.73;;;;;;;;;;4996962;28;20056;-60
2021/04/12 12:08:09;;;;;;;4.85;2.20;;;;;;;;;;5017357;28;20112;-60
2021/04/12 12:10:57;;;;;;;4.55;1.73;;;;;;;;;;4955640;28;20035;-60
2021/04/12 12:13:51;;;;;;;3.83;2.22;;;;;;;;;;4972269;28;20037;-59
2021/04/12 12:16:44;;;;;;;2.35;1.75;;;;;;;;;;4972019;28;20065;-60
2021/04/12 12:19:57;;;;;;;6.47;1.80;;;;;;;;;;4971904;28;20114;-59
2021/04/12 12:22:45;;;;;;;3.03;1.85;;;;;;;;;;4968833;28;20170;-59
2021/04/12 12:25:15;;;;;;;6.50;2.25;;;;;;;;;;5018531;28;20537;-59
2021/04/12 12:27:55;;;;;;;2.72;1.52;;;;;;;;;;5035587;28;20490;-59
2021/04/12 12:30:47;;;;;;;2.88;1.58;;;;;;;;;;5053085;28;20084;-59
2021/04/12 12:33:38;;;;;;;3.40;1.55;;;;;;;;;;5052698;28;20107;-58
2021/04/12 12:36:19;;;;;;;2.88;1.73;;;;;;;;;;5034977;28;20037;-59
2021/04/12 12:41:55;;;;;;;2.58;1.90;;;;;;;;;;5037778;28;20059;-59
2021/04/12 12:44:42;;;;;;;2.78;2.00;;;;;;;;;;5038577;28;20525;-59
2021/04/12 12:47:21;;;;;;;3.17;2.25;;;;;;;;;;5056544;28;20029;-59
2021/04/12 12:50:11;;;;;;;2.60;1.77;;;;;;;;;;5057251;28;20025;-59
2021/04/12 12:52:48;;;;;;;3.47;1.95;;;;;;;;;;5056152;28;20037;-59
2021/04/12 12:55:32;;;;;;;3.55;1.58;;;;;;;;;;5038184;28;20037;-59
2021/04/12 12:58:30;;;;;;;2.05;1.50;;;;;;;;;;5056437;28;20025;-59
2021/04/12 13:01:11;;;;;;;2.38;1.52;;;;;;;;;;5051111;28;20033;-58
2021/04/12 13:03:43;;;;;;;3.15;1.38;;;;;;;;;;5056242;28;20028;-59
2021/04/12 13:06:31;;;;;;;3.20;1.23;;;;;;;;;;5056304;28;20040;-59
2021/04/12 13:09:22;;;;;;;3.47;1.15;;;;;;;;;;5056847;28;20115;-59
2021/04/12 13:12:22;;;;;;;2.53;1.65;;;;;;;;;;5038200;28;20032;-59
2021/04/12 13:14:52;;;;;;;3.60;1.20;;;;;;;;;;4974817;28;20039;-60
2021/04/12 13:17:34;;;;;;;6.38;1.58;;;;;;;;;;4971886;28;20037;-59
2021/04/12 13:20:16;;;;;;;1.85;1.05;;;;;;;;;;5055763;28;20391;-59
2021/04/12 13:23:01;;;;;;;1.50;0.90;;;;;;;;;;5038225;28;20035;-59
2021/04/12 13:25:54;;;;;;;5.93;1.27;;;;;;;;;;5038465;28;20041;-59
2021/04/12 13:28:36;;;;;;;4.90;1.42;;;;;;;;;;5052791;28;20037;-59
2021/04/12 13:31:27;;;;;;;1.90;1.10;;;;;;;;;;5038202;28;20041;-59
2021/04/12 13:34:02;;;;;;;3.25;1.08;;;;;;;;;;5038267;28;20025;-59
2021/04/12 13:36:55;;;;;;;;;;;;;;;;;;;;;
2021/04/12 13:39:29;;;;;;;3.47;1.40;;;;;;;;;;5056404;28;20039;-59
2021/04/12 13:42:04;;;;;;;1.90;1.27;;;;;;;;;;5038370;28;20029;-58
2021/04/12 13:44:33;;;;;;;2.00;1.15;;;;;;;;;;5037215;28;20045;-59
2021/04/12 13:47:23;;;;;;;1.92;1.20;;;;;;;;;;5055254;28;20479;-59
2021/04/12 13:50:13;;;;;;;7.07;1.75;;;;;;;;;;5037290;28;20376;-59
2021/04/12 13:52:44;;;;;;;3.50;0.82;;;;;;;;;;5055696;28;20501;-59
2021/04/12 13:55:34;;;;;;;1.80;1.27;;;;;;;;;;5037215;28;20055;-59
2021/04/12 13:58:07;;;;;;;2.83;1.23;;;;;;;;;;5038727;28;20104;-59
2021/04/12 14:00:44;;;;;;;7.60;1.63;;;;;;;;;;5055145;28;20068;-59
2021/04/12 14:03:37;;;;;;;1.98;1.13;;;;;;;;;;5055806;28;20025;-59
2021/04/12 14:06:13;;;;;;;1.52;0.90;;;;;;;;;;5055269;28;20032;-58
2021/04/12 14:09:07;;;;;;;;;;;;;;;;;;;;;
2021/04/12 14:11:53;;;;;;;2.53;1.40;;;;;;;;;;5050340;28;20505;-58
2021/04/12 14:14:39;;;;;;;4.15;1.27;;;;;;;;;;5055563;28;20028;-59
2021/04/12 14:17:11;;;;;;;2.22;1.38;;;;;;;;;;5055289;28;20060;-59
2021/04/12 14:19:46;;;;;;;5.43;1.75;;;;;;;;;;5055602;28;20071;-59
2021/04/12 14:22:35;;;;;;;5.57;1.50;;;;;;;;;;5054893;28;20481;-59
2021/04/12 14:25:42;;;;;;;4.50;1.90;;;;;;;;;;5055019;28;20103;-59
2021/04/12 14:28:14;;;;;;;2.17;1.15;;;;;;;;;;5054616;28;20029;-59
2021/04/12 14:31:25;;;;;;;3.45;1.38;;;;;;;;;;5035968;28;20445;-59
2021/04/12 14:37:36;;;;;;;3.60;1.20;;;;;;;;;;5054240;28;20040;-58
2021/04/12 14:40:29;;;;;;;4.85;2.00;;;;;;;;;;5024752;28;20041;-58
2021/04/12 14:43:40;;;;;;;2.97;1.70;;;;;;;;;;5037294;28;20463;-59
2021/04/12 14:46:32;;;;;;;8.70;1.70;;;;;;;;;;4992345;28;20124;-59
2021/04/12 14:49:15;;;;;;;3.58;2.05;;;;;;;;;;5032390;28;20117;-59
2021/04/12 14:55:15;;;;;;;3.47;1.65;;;;;;;;;;5054426;28;20378;-58
2021/04/12 14:57:45;;;;;;;2.42;1.73;;;;;;;;;;5054704;28;20448;-58
2021/04/12 15:00:15;;;;;;;3.80;2.20;;;;;;;;;;5054419;28;20371;-59
2021/04/12 15:06:31;;;;;;;5.97;1.90;;;;;;;;;;5053060;28;20033;-58
2021/04/12 15:09:01;;;;;;;3.97;1.80;;;;;;;;;;5053773;28;20031;-59
2021/04/12 15:11:54;;;;;;;3.42;2.05;;;;;;;;;;5054025;28;20028;-59
2021/04/12 15:14:39;;;;;;;2.97;1.48;;;;;;;;;;5035463;28;20032;-59
2021/04/12 15:17:31;;;;;;;1.70;1.13;;;;;;;;;;5053314;28;20040;-59
2021/04/12 15:20:21;;;;;;;3.25;1.52;;;;;;;;;;5035575;28;20033;-59
2021/04/12 15:23:04;;;;;;;5.30;2.00;;;;;;;;;;5036657;28;20044;-59
2021/04/12 15:25:43;;;;;;;2.30;1.40;;;;;;;;;;5054083;28;20032;-59
2021/04/12 15:28:30;;;;;;;4.78;1.80;;;;;;;;;;5037129;28;20021;-59
2021/04/12 15:31:34;;;;;;;;;;;;;;;;;;;;;
2021/04/12 15:34:09;;;;;;;4.07;1.95;;;;;;;;;;5052099;28;20546;-58
2021/04/12 15:36:43;;;;;;;4.28;1.40;;;;;;;;;;5035118;28;20044;-59
2021/04/12 15:39:30;;;;;;;2.00;1.30;;;;;;;;;;5052866;28;20467;-58
2021/04/12 15:42:31;;;;;;;2.45;1.55;;;;;;;;;;5052741;28;20044;-57
2021/04/12 15:45:04;;;;;;;5.72;1.70;;;;;;;;;;5034747;28;20041;-59
2021/04/12 15:47:47;;;;;;;3.20;1.40;;;;;;;;;;5033913;28;20074;-59
2021/04/12 15:50:20;;;;;;;5.55;2.20;;;;;;;;;;5053219;28;20071;-59
2021/04/12 15:53:17;;;;;;;2.38;1.42;;;;;;;;;;5053611;28;20025;-59
2021/04/12 15:56:04;;;;;;;2.08;1.33;;;;;;;;;;5053102;28;20043;-59
2021/04/12 15:58:30;;;;;;;2.95;1.30;;;;;;;;;;5034574;28;20383;-59
2021/04/12 16:01:02;;;;;;;2.25;1.00;;;;;;;;;;5052773;28;20039;-59
2021/04/12 16:04:02;;;;;;;2.10;1.13;;;;;;;;;;5053604;28;20025;-58
2021/04/12 16:06:40;;;;;;;3.15;1.17;;;;;;;;;;5037997;28;20025;-59
2021/04/12 16:12:38;;;;;;;2.42;1.52;;;;;;;;;;5029777;28;20037;-59
2021/04/12 16:15:43;;;;;;;3.55;1.33;;;;;;;;;;5052134;28;20071;-59
2021/04/12 16:18:41;;;;;;;2.40;0.90;;;;;;;;;;5057183;28;20055;-59
2021/04/12 16:21:28;;;;;;;2.70;1.35;;;;;;;;;;5039976;28;20033;-59
2021/04/12 16:24:13;;;;;;;3.60;1.63;;;;;;;;;;5057838;28;20031;-59
2021/04/12 16:27:20;;;;;;;1.67;0.95;;;;;;;;;;5056661;28;20090;-59
2021/04/12 16:30:12;;;;;;;2.03;1.33;;;;;;;;;;5039101;28;20041;-59
2021/04/12 16:33:05;;;;;;;1.88;0.80;;;;;;;;;;5040682;28;20029;-59
2021/04/12 16:35:52;;;;;;;3.00;2.00;;;;;;;;;;5056850;28;20057;-59
2021/04/12 16:38:22;;;;;;;2.08;1.42;;;;;;;;;;5037185;28;20033;-59
2021/04/12 16:47:16;;;;;;;2.85;1.48;;;;;;;;;;5056692;28;20053;-59
2021/04/12 16:50:15;;;;;;;5.15;1.88;;;;;;;;;;5056746;28;20059;-59
2021/04/12 16:52:46;;;;;;;3.60;1.38;;;;;;;;;;5023945;28;20037;-59
2021/04/12 16:55:38;;;;;;;2.72;1.35;;;;;;;;;;5056210;28;20036;-59
2021/04/12 16:58:20;;;;;;;3.15;1.10;;;;;;;;;;5038840;28;20029;-59
2021/04/12 17:04:22;;;;;;;3.55;1.13;;;;;;;;;;5056933;28;20386;-59
2021/04/12 17:07:09;;;;;;;2.83;1.45;;;;;;;;;;5057139;28;20469;-59
2021/04/12 17:09:48;;;;;;;2.05;1.30;;;;;;;;;;5041344;28;20446;-58
2021/04/12 17:12:26;;;;;;;1.77;1.13;;;;;;;;;;5038893;28;20039;-59
2021/04/12 17:15:13;;;;;;;3.17;1.75;;;;;;;;;;5057322;28;20064;-58
2021/04/12 17:18:03;;;;;;;4.20;1.08;;;;;;;;;;5056888;28;20115;-59
2021/04/12 17:20:55;;;;;;;3.80;1.55;;;;;;;;;;5056868;28;20025;-59
2021/04/12 17:23:37;;;;;;;5.65;1.90;;;;;;;;;;5038544;28;20025;-59
2021/04/12 17:26:15;;;;;;;3.30;1.65;;;;;;;;;;5056050;28;20491;-59
2021/04/12 17:29:00;;;;;;;2.08;1.50;;;;;;;;;;5056115;28;20024;-59
2021/04/12 17:31:56;;;;;;;2.13;1.27;;;;;;;;;;5054812;28;20101;-59
2021/04/12 17:34:31;;;;;;;3.08;1.77;;;;;;;;;;5039298;28;20391;-58
2021/04/12 17:37:07;;;;;;;3.03;1.90;;;;;;;;;;5055704;28;20123;-59
2021/04/12 17:39:57;;;;;;;4.90;1.50;;;;;;;;;;5038023;28;20393;-59
2021/04/12 17:42:27;;;;;;;3.40;1.95;;;;;;;;;;4974973;28;20501;-59
2021/04/12 17:45:06;;;;;;;3.58;1.83;;;;;;;;;;5048415;28;20392;-59
2021/04/12 17:47:48;;;;;;;2.83;1.33;;;;;;;;;;5055825;28;20409;-59
2021/04/12 17:50:43;;;;;;;2.63;1.50;;;;;;;;;;5038307;28;20447;-59
2021/04/12 17:56:41;;;;;;;5.57;2.17;;;;;;;;;;5055658;28;20403;-59
2021/04/12 17:59:44;;;;;;;2.75;1.95;;;;;;;;;;5055826;28;20383;-59
2021/04/12 18:02:30;;;;;;;2.83;1.65;;;;;;;;;;5037537;28;20383;-59
2021/04/12 18:05:28;;;;;;;2.85;1.85;;;;;;;;;;5020682;28;20063;-58
2021/04/12 18:08:35;;;;;;;4.40;1.85;;;;;;;;;;4999562;28;20029;-59
2021/04/12 18:11:25;;;;;;;2.60;1.35;;;;;;;;;;4975979;28;20039;-59
2021/04/12 18:14:00;;;;;;;4.70;1.83;;;;;;;;;;5037438;28;20025;-59
2021/04/12 18:16:53;;;;;;;4.03;1.55;;;;;;;;;;5055018;28;20040;-59
2021/04/12 18:22:30;;;;;;;1.90;1.20;;;;;;;;;;5043844;28;20033;-59
2021/04/12 18:25:22;;;;;;;1.55;1.05;;;;;;;;;;5037009;28;20025;-58
2021/04/12 18:28:18;;;;;;;2.97;1.90;;;;;;;;;;5055428;28;20025;-59
2021/04/12 18:31:03;;;;;;;2.10;1.15;;;;;;;;;;5053483;28;20037;-59
2021/04/12 18:33:57;;;;;;;3.28;1.63;;;;;;;;;;5054641;28;20036;-59
2021/04/12 18:36:37;;;;;;;2.67;1.35;;;;;;;;;;5054515;28;20040;-59
2021/04/12 18:39:33;;;;;;;2.70;1.50;;;;;;;;;;5053626;28;20059;-59
2021/04/12 18:42:23;;;;;;;3.42;1.75;;;;;;;;;;5037290;28;20264;-59
2021/04/12 18:44:59;;;;;;;1.90;1.50;;;;;;;;;;5036746;28;20420;-59
2021/04/12 18:50:39;;;;;;;2.87;1.63;;;;;;;;;;5049538;28;20025;-59
2021/04/12 18:53:55;;;;;;;4.60;1.20;;;;;;;;;;5036172;28;20040;-58
2021/04/12 19:00:25;;;;;;;2.03;1.42;;;;;;;;;;4954160;29;20069;-58
2021/04/12 19:03:18;;;;;;;3.92;2.25;;;;;;;;;;5027288;27;3751605;-56
2021/04/12 19:06:15;;;;;;;2.20;1.60;;;;;;;;;;5131004;28;20030;-57
2021/04/12 19:08:57;;;;;;;;;;;;;;;;;;;;;
2021/04/12 19:11:43;;;;;;;4.37;1.93;;;;;;;;;;5116354;28;20115;-59
2021/04/12 19:14:41;;;;;;;3.73;1.80;;;;;;;;;;5088524;28;20024;-59
2021/04/12 19:17:17;;;;;;;3.47;2.37;;;;;;;;;;5088806;28;20095;-59
2021/04/12 19:20:02;;;;;;;3.03;2.00;;;;;;;;;;5088611;28;20036;-59
2021/04/12 19:22:57;;;;;;;3.03;1.60;;;;;;;;;;5088993;28;20032;-58
2021/04/12 19:25:45;;;;;;;4.27;1.80;;;;;;;;;;5088464;28;20033;-59
2021/04/12 19:28:23;;;;;;;3.47;1.93;;;;;;;;;;5088278;28;20080;-59
2021/04/12 19:31:14;;;;;;;3.23;2.20;;;;;;;;;;5088773;28;20051;-59
2021/04/12 19:37:17;;;;;;;3.72;1.98;;;;;;;;;;5088266;28;20082;-59
2021/04/12 19:39:42;;;;;;;4.65;2.38;;;;;;;;;;5087247;28;20024;-59
2021/04/12 19:42:28;;;;;;;;;;;;;;;;;;;;;
2021/04/12 19:48:42;;;;;;;4.00;2.50;;;;;;;;;;5087544;28;20039;-59
2021/04/12 19:51:22;;;;;;;5.10;3.17;;;;;;;;;;5083692;28;20036;-59
2021/04/12 19:54:07;;;;;;;4.73;2.70;;;;;;;;;;5087534;28;20028;-59
2021/04/12 19:56:52;;;;;;;;;;;;;;;;;;;;;
2021/04/12 19:59:30;;;;;;;4.70;2.83;;;;;;;;;;5107000;28;20036;-59
2021/04/12 20:08:22;;;;;;;4.53;2.40;;;;;;;;;;5110423;28;20062;-59
2021/04/12 20:11:19;;;;;;;3.30;1.90;;;;;;;;;;5076439;28;20043;-58
2021/04/12 20:14:14;;;;;;;5.70;2.50;;;;;;;;;;5097220;28;20358;-59